createdAt,value
2023-04-09T00:03:59.195Z,17.87
2023-04-09T00:09:00.808Z,17.03
2023-04-09T00:14:02.233Z,18.30
2023-04-09T00:19:03.657Z,16.67
2023-04-09T00:24:05.256Z,16.33
2023-04-09T00:29:06.667Z,16.37
2023-04-09T00:34:08.134Z,17.50
2023-04-09T00:39:09.597Z,16.70
2023-04-09T00:44:11.075Z,17.13
2023-04-09T00:49:12.541Z,17.40
2023-04-09T00:54:14.205Z,16.80
2023-04-09T00:59:15.962Z,16.83
2023-04-09T01:04:17.562Z,16.97
2023-04-09T01:09:28.625Z,18.00
2023-04-09T01:14:32.766Z,19.30
2023-04-09T01:19:44.045Z,17.27
2023-04-09T01:24:56.997Z,18.60
2023-04-09T01:29:58.816Z,19.00
2023-04-09T01:35:01.377Z,20.40
2023-04-09T01:40:04.584Z,21.67
2023-04-09T01:45:07.019Z,20.20
2023-04-09T01:50:08.785Z,20.10
2023-04-09T01:55:10.219Z,20.27
2023-04-09T02:00:12.231Z,20.97
2023-04-09T02:05:15.456Z,22.73
2023-04-09T02:10:17.701Z,22.33
2023-04-09T02:15:20.061Z,26.47
2023-04-09T02:20:21.923Z,26.97
2023-04-09T02:25:23.466Z,25.40
2023-04-09T02:30:24.937Z,26.90
2023-04-09T02:35:26.360Z,25.97
2023-04-09T02:40:28.025Z,26.37
2023-04-09T02:45:29.483Z,26.87
2023-04-09T02:50:30.923Z,28.10
2023-04-09T02:55:32.294Z,26.87
2023-04-09T03:00:33.985Z,28.63
2023-04-09T03:05:36.225Z,27.80
2023-04-09T03:10:37.674Z,28.67
2023-04-09T03:15:39.126Z,27.20
2023-04-09T03:20:41.500Z,27.53
2023-04-09T03:25:42.893Z,28.73
2023-04-09T03:30:44.242Z,28.30
2023-04-09T03:35:45.672Z,27.60
2023-04-09T03:40:47.079Z,27.90
2023-04-09T03:45:48.438Z,28.00
2023-04-09T03:50:49.876Z,27.23
2023-04-09T03:55:51.638Z,27.70
2023-04-09T04:00:53.039Z,27.93
2023-04-09T04:05:54.630Z,26.73
2023-04-09T04:10:56.179Z,28.33
2023-04-09T04:15:57.671Z,29.90
2023-04-09T04:20:59.128Z,28.13
2023-04-09T04:26:00.547Z,28.13
2023-04-09T04:31:02.092Z,30.87
2023-04-09T04:36:10.646Z,30.33
2023-04-09T04:41:12.091Z,29.47
2023-04-09T04:46:13.527Z,30.53
2023-04-09T04:51:15.114Z,29.50
2023-04-09T04:56:16.584Z,29.30
2023-04-09T05:01:18.089Z,29.83
2023-04-09T05:06:19.638Z,29.07
2023-04-09T05:11:21.199Z,29.77
2023-04-09T05:16:23.111Z,28.27
2023-04-09T05:21:24.560Z,28.40
2023-04-09T05:26:26.854Z,28.20
2023-04-09T05:31:28.235Z,28.17
2023-04-09T05:36:29.696Z,32.07
2023-04-09T05:41:32.722Z,29.23
2023-04-09T05:46:34.142Z,29.80
2023-04-09T05:51:35.582Z,30.70
2023-04-09T05:56:37.092Z,29.67
2023-04-09T06:01:38.585Z,31.17
2023-04-09T06:06:40.081Z,29.50
2023-04-09T06:11:41.533Z,31.40
2023-04-09T06:16:42.963Z,33.40
2023-04-09T06:21:44.437Z,30.43
2023-04-09T06:26:46.048Z,30.50
2023-04-09T06:31:48.686Z,31.70
2023-04-09T06:36:50.151Z,29.13
2023-04-09T06:41:51.633Z,32.70
2023-04-09T06:46:53.184Z,27.50
2023-04-09T06:51:54.766Z,28.33
2023-04-09T06:56:56.534Z,28.37
2023-04-09T07:01:58.065Z,25.43
2023-04-09T07:07:00.085Z,25.90
2023-04-09T07:12:01.461Z,23.73
2023-04-09T07:17:03.000Z,23.13
2023-04-09T07:22:04.405Z,24.83
2023-04-09T07:27:05.849Z,24.40
2023-04-09T07:32:07.495Z,20.50
2023-04-09T07:37:09.042Z,17.43
2023-04-09T07:42:10.896Z,20.37
2023-04-09T07:47:12.932Z,17.20
2023-04-09T07:52:14.771Z,18.30
2023-04-09T07:57:16.343Z,18.17
2023-04-09T08:02:18.097Z,17.93
2023-04-09T08:07:19.567Z,19.27
2023-04-09T08:12:21.223Z,19.15
2023-04-09T08:17:23.254Z,18.98
2023-04-09T08:22:24.788Z,20.52
2023-04-09T08:27:26.241Z,21.48
2023-04-09T08:32:28.128Z,18.35
2023-04-09T08:37:30.087Z,19.63
2023-04-09T08:42:31.739Z,28.30
2023-04-09T08:47:34.077Z,18.98
2023-04-09T08:52:35.686Z,20.27
2023-04-09T08:57:40.926Z,19.40
2023-04-09T09:03:01.370Z,18.63
2023-04-09T09:08:03.061Z,18.60
2023-04-09T09:13:17.546Z,18.42
2023-04-09T09:18:19.433Z,16.25
2023-04-09T09:23:34.212Z,14.95
2023-04-09T09:28:36.461Z,14.00
2023-04-09T09:33:38.494Z,14.52
2023-04-09T09:38:55.755Z,13.25
2023-04-09T09:43:57.442Z,14.10
2023-04-09T09:48:58.869Z,14.10
2023-04-09T09:54:00.284Z,13.60
2023-04-09T09:59:13.077Z,14.10
2023-04-09T10:04:15.788Z,12.52
2023-04-09T10:09:17.874Z,12.07
2023-04-09T10:14:19.431Z,13.57
2023-04-09T10:19:22.175Z,13.00
2023-04-09T10:24:24.189Z,11.60
2023-04-09T10:29:29.234Z,12.15
2023-04-09T10:34:35.228Z,11.27
2023-04-09T10:39:39.748Z,13.82
2023-04-09T10:44:44.421Z,11.90
2023-04-09T10:49:45.918Z,11.52
2023-04-09T10:54:50.534Z,11.23
2023-04-09T10:59:52.830Z,12.48
2023-04-09T11:05:06.746Z,13.10
2023-04-09T11:10:08.634Z,12.70
2023-04-09T11:15:16.735Z,12.02
2023-04-09T11:20:20.871Z,12.45
2023-04-09T11:25:23.200Z,12.38
2023-04-09T11:30:24.704Z,11.85
2023-04-09T11:35:26.164Z,12.70
2023-04-09T11:40:29.205Z,11.50
2023-04-09T11:45:31.933Z,10.88
2023-04-09T11:50:33.912Z,10.00
2023-04-09T11:55:35.452Z,10.13
2023-04-09T12:00:40.352Z,15.07
2023-04-09T12:05:49.649Z,11.10
2023-04-09T12:10:53.847Z,10.98
2023-04-09T12:15:57.018Z,9.48
2023-04-09T12:21:01.346Z,9.25
2023-04-09T12:26:02.769Z,9.77
2023-04-09T12:31:04.275Z,10.35
2023-04-09T12:36:05.793Z,9.30
2023-04-09T12:41:07.386Z,9.18
2023-04-09T12:46:08.993Z,9.38
2023-04-09T12:51:11.325Z,9.10
2023-04-09T12:56:12.761Z,8.73
2023-04-09T13:01:14.573Z,9.63
2023-04-09T13:06:16.366Z,9.52
2023-04-09T13:11:17.766Z,9.55
2023-04-09T13:16:19.199Z,9.55
2023-04-09T13:21:20.637Z,9.82
2023-04-09T13:26:22.020Z,8.98
2023-04-09T13:31:23.796Z,10.18
2023-04-09T13:36:25.896Z,9.45
2023-04-09T13:41:30.267Z,9.52
2023-04-09T13:46:33.529Z,9.88
2023-04-09T13:51:34.997Z,9.60
2023-04-09T13:56:37.109Z,10.23
2023-04-09T14:01:38.672Z,10.55
2023-04-09T14:06:40.355Z,11.10
2023-04-09T14:11:41.836Z,11.23
2023-04-09T14:16:43.276Z,9.90
2023-04-09T14:21:44.700Z,9.93
2023-04-09T14:26:46.650Z,22.05
2023-04-09T14:31:48.289Z,11.35
2023-04-09T14:36:49.842Z,11.30
2023-04-09T14:41:51.652Z,9.93
2023-04-09T14:46:54.941Z,11.05
2023-04-09T14:51:56.963Z,10.70
2023-04-09T14:56:59.029Z,10.60
2023-04-09T15:02:00.618Z,11.30
2023-04-09T15:07:02.131Z,10.18
2023-04-09T15:12:03.671Z,12.35
2023-04-09T15:17:05.427Z,12.07
2023-04-09T15:22:06.828Z,10.48
2023-04-09T15:27:08.397Z,22.30
2023-04-09T15:32:09.817Z,21.85
2023-04-09T15:37:11.209Z,10.90
2023-04-09T15:42:14.254Z,11.65
2023-04-09T15:47:16.599Z,11.80
2023-04-09T15:52:18.011Z,11.73
2023-04-09T15:57:19.662Z,11.52
2023-04-09T16:02:21.649Z,12.82
2023-04-09T16:07:24.202Z,11.55
2023-04-09T16:12:25.637Z,11.38
2023-04-09T16:17:27.097Z,9.57
2023-04-09T16:22:28.934Z,40.78
2023-04-09T16:27:30.575Z,11.10
2023-04-09T16:32:32.326Z,8.95
2023-04-09T16:37:35.124Z,9.45
2023-04-09T16:42:36.796Z,9.02
2023-04-09T16:47:38.299Z,8.90
2023-04-09T16:52:40.600Z,8.48
2023-04-09T16:57:42.218Z,8.50
2023-04-09T17:02:44.727Z,9.70
2023-04-09T17:07:46.149Z,9.93
2023-04-09T17:12:48.108Z,10.30
2023-04-09T17:17:52.313Z,10.35
2023-04-09T17:22:53.766Z,9.68
2023-04-09T17:27:55.248Z,9.45
2023-04-09T17:32:56.663Z,12.52
2023-04-09T17:37:58.162Z,12.60
2023-04-09T17:43:00.243Z,11.95
2023-04-09T17:48:02.867Z,11.10
2023-04-09T17:53:04.412Z,12.25
2023-04-09T17:58:05.956Z,13.07
2023-04-09T18:03:07.978Z,14.93
2023-04-09T18:08:09.532Z,14.07
2023-04-09T18:13:10.895Z,13.82
2023-04-09T18:18:12.286Z,15.30
2023-04-09T18:23:13.687Z,16.52
2023-04-09T18:28:15.145Z,16.85
2023-04-09T18:33:16.532Z,15.57
2023-04-09T18:38:18.295Z,46.35
2023-04-09T18:43:19.677Z,25.58
2023-04-09T18:48:21.385Z,15.40
2023-04-09T18:53:22.814Z,15.55
2023-04-09T18:58:25.018Z,14.32
2023-04-09T19:03:29.315Z,15.38
2023-04-09T19:08:38.390Z,14.55
2023-04-09T19:13:39.985Z,15.77
2023-04-09T19:18:41.412Z,17.25
2023-04-09T19:23:42.882Z,15.57
2023-04-09T19:28:44.398Z,15.77
2023-04-09T19:33:45.827Z,16.75
2023-04-09T19:38:47.383Z,18.00
2023-04-09T19:43:48.775Z,16.77
2023-04-09T19:48:50.250Z,15.85
2023-04-09T19:53:51.690Z,15.07
2023-04-09T19:58:53.209Z,15.88
2023-04-09T20:03:55.002Z,14.68
2023-04-09T20:08:56.638Z,16.80
2023-04-09T20:13:58.497Z,24.23
2023-04-09T20:18:59.858Z,18.92
2023-04-09T20:24:02.498Z,17.92
2023-04-09T20:29:03.982Z,17.00
2023-04-09T20:34:05.424Z,18.52
2023-04-09T20:39:06.786Z,16.67
2023-04-09T20:44:08.183Z,16.95
2023-04-09T20:49:09.659Z,17.08
2023-04-09T20:54:11.077Z,17.33
2023-04-09T20:59:12.556Z,17.67
2023-04-09T21:04:15.055Z,16.42
2023-04-09T21:09:16.660Z,17.10
2023-04-09T21:14:18.063Z,17.65
2023-04-09T21:19:19.418Z,16.07
2023-04-09T21:24:21.004Z,18.67
2023-04-09T21:29:22.422Z,18.35
2023-04-09T21:34:23.808Z,18.60
2023-04-09T21:39:25.359Z,24.17
2023-04-09T21:44:26.844Z,18.92
2023-04-09T21:49:28.217Z,18.20
2023-04-09T21:54:29.596Z,17.93
2023-04-09T21:59:31.006Z,19.87
2023-04-09T22:04:32.772Z,18.20
2023-04-09T22:09:34.210Z,18.90
2023-04-09T22:14:35.756Z,21.43
2023-04-09T22:19:37.155Z,21.00
2023-04-09T22:24:39.307Z,20.10
2023-04-09T22:29:40.859Z,22.20
2023-04-09T22:34:42.254Z,21.37
2023-04-09T22:39:43.938Z,21.20
2023-04-09T22:44:45.326Z,20.30
2023-04-09T22:49:46.766Z,20.60
2023-04-09T22:54:48.191Z,20.13
2023-04-09T22:59:49.610Z,19.27
2023-04-09T23:04:51.065Z,20.43
2023-04-09T23:09:54.862Z,20.70
2023-04-09T23:14:56.210Z,22.10
2023-04-09T23:19:57.658Z,20.93
2023-04-09T23:24:59.066Z,21.37
2023-04-09T23:30:00.433Z,23.17
2023-04-09T23:35:01.910Z,22.30
2023-04-09T23:40:03.903Z,20.97
2023-04-09T23:45:05.674Z,22.47
2023-04-09T23:50:08.238Z,21.57
2023-04-09T23:55:10.604Z,20.77
